createdAt,value
2023-03-17T00:01:51.632Z,53.00
2023-03-17T00:04:20.002Z,44.47
2023-03-17T00:06:48.117Z,62.20
2023-03-17T00:09:18.283Z,59.42
2023-03-17T00:11:46.812Z,55.75
2023-03-17T00:14:14.392Z,60.38
2023-03-17T00:16:44.658Z,60.35
2023-03-17T00:19:21.806Z,70.70
2023-03-17T00:21:50.116Z,61.50
2023-03-17T00:24:26.413Z,57.60
2023-03-17T00:26:59.854Z,73.75
2023-03-17T00:29:27.150Z,70.80
2023-03-17T00:31:57.126Z,72.22
2023-03-17T00:34:24.841Z,77.70
2023-03-17T00:36:52.312Z,79.28
2023-03-17T00:39:19.890Z,70.90
2023-03-17T00:41:49.984Z,60.30
2023-03-17T00:44:17.588Z,56.38
2023-03-17T00:46:48.059Z,65.95
2023-03-17T00:49:21.374Z,68.60
2023-03-17T00:51:49.936Z,66.63
2023-03-17T00:54:19.567Z,71.55
2023-03-17T00:56:48.532Z,79.25
2023-03-17T00:59:28.235Z,79.35
2023-03-17T01:01:56.344Z,67.72
2023-03-17T01:04:24.183Z,65.50
2023-03-17T01:06:53.140Z,57.35
2023-03-17T01:09:24.257Z,61.47
2023-03-17T01:11:51.629Z,60.15
2023-03-17T01:14:19.176Z,65.05
2023-03-17T01:16:47.890Z,54.33
2023-03-17T01:19:16.950Z,60.05
2023-03-17T01:21:44.547Z,53.60
2023-03-17T01:24:12.972Z,54.58
2023-03-17T01:26:40.627Z,47.67
2023-03-17T01:29:08.346Z,48.30
2023-03-17T01:31:36.442Z,54.75
2023-03-17T01:34:06.416Z,54.40
2023-03-17T01:36:34.551Z,48.92
2023-03-17T01:39:02.187Z,46.85
2023-03-17T01:41:37.716Z,47.15
2023-03-17T01:44:07.425Z,55.55
2023-03-17T01:46:37.848Z,43.78
2023-03-17T01:49:27.858Z,43.95
2023-03-17T01:52:07.668Z,41.53
2023-03-17T01:54:35.003Z,40.63
2023-03-17T01:57:18.756Z,42.00
2023-03-17T01:59:52.388Z,36.50
2023-03-17T02:02:24.956Z,41.38
2023-03-17T02:04:53.083Z,42.00
2023-03-17T02:07:22.309Z,45.40
2023-03-17T02:09:52.634Z,42.97
2023-03-17T02:12:22.795Z,46.35
2023-03-17T02:14:51.711Z,44.75
2023-03-17T02:17:20.315Z,41.72
2023-03-17T02:19:47.862Z,48.42
2023-03-17T02:22:17.061Z,43.70
2023-03-17T02:24:51.862Z,46.05
2023-03-17T02:27:25.569Z,40.13
2023-03-17T02:29:53.932Z,43.55
2023-03-17T02:32:21.366Z,45.72
2023-03-17T02:34:49.644Z,43.70
2023-03-17T02:37:18.315Z,38.15
2023-03-17T02:39:48.023Z,36.47
2023-03-17T02:42:15.328Z,47.00
2023-03-17T02:44:42.653Z,46.22
2023-03-17T02:47:09.944Z,40.45
2023-03-17T02:49:39.359Z,33.33
2023-03-17T02:52:07.435Z,34.33
2023-03-17T02:54:35.003Z,40.15
2023-03-17T02:57:02.379Z,40.50
2023-03-17T02:59:29.915Z,38.90
2023-03-17T03:01:57.379Z,30.75
2023-03-17T03:04:24.715Z,37.15
2023-03-17T03:06:52.600Z,36.38
2023-03-17T03:09:20.469Z,32.78
2023-03-17T03:11:48.201Z,38.10
2023-03-17T03:14:15.496Z,37.75
2023-03-17T03:16:43.612Z,43.83
2023-03-17T03:19:11.008Z,48.85
2023-03-17T03:21:38.538Z,52.55
2023-03-17T03:24:06.678Z,45.25
2023-03-17T03:26:33.971Z,48.90
2023-03-17T03:29:02.337Z,49.58
2023-03-17T03:31:29.739Z,44.90
2023-03-17T03:33:57.026Z,42.40
2023-03-17T03:36:25.477Z,45.38
2023-03-17T03:38:55.015Z,40.10
2023-03-17T03:41:25.255Z,29.95
2023-03-17T03:43:53.138Z,34.13
2023-03-17T03:46:20.500Z,35.20
2023-03-17T03:48:50.832Z,29.30
2023-03-17T03:51:18.206Z,33.05
2023-03-17T03:53:45.516Z,35.85
2023-03-17T03:56:12.881Z,31.92
2023-03-17T03:58:41.848Z,27.98
2023-03-17T04:01:10.148Z,30.30
2023-03-17T04:03:38.623Z,26.70
2023-03-17T04:06:06.566Z,32.95
2023-03-17T04:08:33.906Z,31.42
2023-03-17T04:11:01.266Z,27.40
2023-03-17T04:13:28.528Z,27.48
2023-03-17T04:15:56.654Z,31.35
2023-03-17T04:18:24.122Z,24.55
2023-03-17T04:20:51.478Z,32.40
2023-03-17T04:23:19.157Z,26.35
2023-03-17T04:25:47.190Z,23.17
2023-03-17T04:28:14.646Z,28.85
2023-03-17T04:30:42.154Z,30.70
2023-03-17T04:33:12.192Z,24.70
2023-03-17T04:35:43.014Z,25.95
2023-03-17T04:38:14.226Z,29.45
2023-03-17T04:40:41.766Z,30.15
2023-03-17T04:43:12.232Z,26.50
2023-03-17T04:45:39.628Z,25.30
2023-03-17T04:48:07.075Z,27.23
2023-03-17T04:50:34.559Z,28.98
2023-03-17T04:53:02.246Z,22.55
2023-03-17T04:55:29.607Z,32.25
2023-03-17T04:57:56.989Z,33.28
2023-03-17T05:00:24.323Z,35.35
2023-03-17T05:02:51.787Z,34.28
2023-03-17T05:05:19.129Z,30.98
2023-03-17T05:07:46.838Z,33.78
2023-03-17T05:10:16.370Z,34.97
2023-03-17T05:12:47.423Z,29.38
2023-03-17T05:15:48.762Z,33.00
2023-03-17T05:18:37.166Z,35.30
2023-03-17T05:21:09.022Z,34.80
2023-03-17T05:24:09.250Z,27.00
2023-03-17T05:26:42.266Z,35.28
2023-03-17T05:29:10.157Z,34.10
2023-03-17T05:31:37.709Z,29.42
2023-03-17T05:34:07.597Z,29.75
2023-03-17T05:36:37.059Z,25.95
2023-03-17T05:39:07.549Z,26.27
2023-03-17T05:41:35.027Z,21.27
2023-03-17T05:47:31.208Z,27.90
2023-03-17T05:50:06.921Z,37.53
2023-03-17T05:52:43.920Z,49.17
2023-03-17T05:55:48.042Z,41.33
2023-03-17T05:58:40.886Z,36.03
2023-03-17T06:02:00.069Z,31.05
2023-03-17T06:04:39.785Z,49.80
2023-03-17T06:13:38.845Z,48.00
2023-03-17T06:17:09.573Z,38.22
2023-03-17T06:19:51.665Z,40.13
2023-03-17T06:22:22.841Z,31.45
2023-03-17T06:25:12.223Z,35.08
2023-03-17T06:27:45.268Z,29.40
2023-03-17T06:30:13.853Z,29.80
2023-03-17T06:32:53.781Z,29.13
2023-03-17T06:35:31.359Z,32.17
2023-03-17T06:38:01.536Z,25.25
2023-03-17T06:40:47.412Z,27.40
2023-03-17T06:44:13.500Z,26.50
2023-03-17T06:51:14.025Z,25.52
2023-03-17T07:23:56.536Z,7.53
2023-03-17T07:29:41.874Z,12.93
2023-03-17T07:36:13.361Z,11.45
2023-03-17T08:26:52.399Z,7.72
2023-03-17T08:32:24.102Z,6.07
2023-03-17T08:35:37.512Z,3.67
2023-03-17T08:38:09.172Z,5.57
2023-03-17T08:41:13.506Z,3.15
2023-03-17T08:43:46.488Z,4.30
2023-03-17T08:49:57.168Z,3.15
2023-03-17T08:55:53.766Z,2.65
2023-03-17T08:58:32.100Z,5.45
2023-03-17T09:01:05.319Z,5.80
2023-03-17T09:09:40.737Z,2.00
2023-03-17T09:23:36.661Z,2.70
2023-03-17T09:26:06.763Z,3.80
2023-03-17T09:38:01.483Z,5.32
2023-03-17T09:41:20.561Z,2.72
2023-03-17T09:47:38.776Z,5.45
2023-03-17T09:56:57.032Z,3.88
2023-03-17T09:59:37.199Z,4.78
2023-03-17T10:05:35.269Z,7.00
2023-03-17T10:19:21.259Z,3.30
2023-03-17T10:38:22.800Z,4.05
2023-03-17T10:41:13.587Z,2.97
2023-03-17T11:20:44.209Z,2.55
2023-03-17T11:32:42.753Z,4.95
2023-03-17T12:06:56.129Z,4.60
2023-03-17T12:09:35.976Z,3.63
2023-03-17T12:12:18.209Z,3.95
2023-03-17T12:54:54.404Z,3.60
2023-03-17T12:57:32.710Z,3.92
2023-03-17T13:00:10.301Z,3.40
2023-03-17T13:10:14.619Z,3.72
2023-03-17T13:38:00.987Z,3.35
2023-03-17T13:47:27.382Z,3.80
2023-03-17T13:50:18.252Z,4.40
2023-03-17T14:09:34.482Z,6.00
2023-03-17T14:12:12.708Z,3.70
2023-03-17T14:18:15.742Z,4.43
2023-03-17T14:26:50.410Z,2.95
2023-03-17T14:29:22.447Z,3.15
2023-03-17T14:42:05.503Z,4.03
2023-03-17T14:48:05.867Z,5.72
2023-03-17T15:20:49.014Z,4.35
2023-03-17T15:27:16.544Z,4.90
2023-03-17T15:29:44.739Z,5.63
2023-03-17T15:46:58.847Z,3.97
2023-03-17T15:59:58.484Z,7.90
2023-03-17T17:47:42.583Z,11.23
2023-03-17T19:14:00.212Z,33.88
2023-03-17T19:16:29.707Z,38.35
2023-03-17T19:19:05.413Z,26.92
2023-03-17T19:21:44.209Z,24.35
2023-03-17T19:24:21.303Z,22.60
2023-03-17T19:26:53.961Z,22.83
2023-03-17T19:29:29.117Z,24.42
2023-03-17T19:32:18.283Z,40.58
2023-03-17T19:34:49.085Z,34.42
2023-03-17T19:37:31.634Z,24.02
2023-03-17T19:40:33.096Z,23.80
2023-03-17T19:43:53.516Z,23.65
2023-03-17T19:46:29.918Z,28.30
2023-03-17T19:49:13.165Z,35.65
2023-03-17T19:52:06.620Z,35.38
2023-03-17T19:54:39.021Z,34.40
2023-03-17T19:57:15.729Z,39.28
2023-03-17T19:59:58.288Z,43.08
2023-03-17T20:02:57.788Z,36.70
2023-03-17T20:05:43.802Z,39.97
